Ashby, Nebraska
Current Conditions -  °F | °C
As of 10:53 PM on Saturday 22 Nov 2014 (Local Time) from KAIA Reporting Station
Overcast Overcast  
Wind Chill: 29°   Ceiling: 10000
Heat Index: 35°   Visibility: 10mi
Dew Point: 28°   Wind: 7mph
Humidity: 76%   Direction: 280°W
Pressure: 29.5"   Gusts: NA
Location:  42.02°N, 101.93°W
Report Text: KAIA 230553Z AUTO 28006KT 10SM OVC100 02/M02 A2950 RMK AO2 SLP979 60000 T00171022 10117 20006 53001
Loading
Personal Weather Stations






























Interactive Weather Map New forecast layout! Learn more

10-Day Weather Forecast

Advertisements
Track Severe Weather on mobile